Terminal Aerodrome Forecast
Issued by NWS

Home | Current Version | Previous Version | Graphics & Text | Print | Product List | Glossary On
Versions: 1 2 3 4 5 6 7 8 9 10 11 12 13
891
FTUS41 KCLE 211131
TAFFDY
TAF
KFDY 211131Z 2112/2212 13004KT P6SM SCT250
     FM211700 06005KT P6SM BKN200=

USA.gov is the U.S. government's official web portal to all federal, state and local government web resources and services.